createdAt,value
2018-08-22T00:02:11.036Z,60.99
2018-08-22T00:04:39.369Z,61.70
2018-08-22T00:07:07.867Z,60.39
2018-08-22T00:09:36.330Z,60.95
2018-08-22T00:12:04.667Z,60.27
2018-08-22T00:14:33.023Z,60.74
2018-08-22T00:17:01.623Z,61.08
2018-08-22T00:19:30.038Z,61.07
2018-08-22T00:21:58.353Z,61.96
2018-08-22T00:24:26.734Z,61.89
2018-08-22T00:26:55.129Z,61.74
2018-08-22T00:29:23.518Z,61.26
2018-08-22T00:31:51.937Z,60.59
2018-08-22T00:34:20.282Z,61.18
2018-08-22T00:36:48.595Z,61.63
2018-08-22T00:39:16.994Z,61.88
2018-08-22T00:41:45.414Z,62.33
2018-08-22T00:44:13.781Z,62.43
2018-08-22T00:46:42.169Z,63.03
2018-08-22T00:49:10.537Z,61.80
2018-08-22T00:51:38.908Z,61.34
2018-08-22T00:54:07.348Z,61.78
2018-08-22T00:56:35.699Z,61.64
2018-08-22T00:59:04.199Z,62.37
2018-08-22T01:01:32.548Z,62.46
2018-08-22T01:04:00.967Z,61.93
2018-08-22T01:06:29.339Z,62.00
2018-08-22T01:08:57.736Z,61.37
2018-08-22T01:11:26.098Z,61.89
2018-08-22T01:13:54.375Z,61.56
2018-08-22T01:16:22.738Z,62.21
2018-08-22T01:18:51.075Z,62.75
2018-08-22T01:21:19.403Z,61.47
2018-08-22T01:23:47.723Z,62.18
2018-08-22T01:26:16.129Z,62.42
2018-08-22T01:28:44.530Z,62.34
2018-08-22T01:31:12.894Z,62.46
2018-08-22T01:33:41.246Z,62.29
2018-08-22T01:36:09.615Z,63.51
2018-08-22T01:38:37.983Z,62.22
2018-08-22T01:41:06.349Z,62.77
2018-08-22T01:43:34.742Z,62.33
2018-08-22T01:46:03.163Z,63.77
2018-08-22T01:48:31.513Z,64.25
2018-08-22T01:50:59.933Z,63.38
2018-08-22T01:53:28.271Z,63.74
2018-08-22T01:55:56.678Z,63.35
2018-08-22T01:58:25.225Z,62.86
2018-08-22T02:00:53.594Z,63.28
2018-08-22T02:03:22.041Z,63.35
2018-08-22T02:05:50.406Z,62.94
2018-08-22T02:08:18.799Z,63.05
2018-08-22T02:10:47.134Z,63.81
2018-08-22T02:13:15.541Z,63.46
2018-08-22T02:15:43.862Z,63.32
2018-08-22T02:18:12.208Z,64.21
2018-08-22T02:20:40.561Z,63.59
2018-08-22T02:23:08.935Z,64.50
2018-08-22T02:25:37.404Z,64.32
2018-08-22T02:28:05.750Z,65.07
2018-08-22T02:30:34.125Z,63.85
2018-08-22T02:33:02.500Z,65.34
2018-08-22T02:35:30.855Z,65.11
2018-08-22T02:37:59.242Z,65.37
2018-08-22T02:40:27.717Z,64.30
2018-08-22T02:42:56.047Z,64.36
2018-08-22T02:45:24.399Z,63.83
2018-08-22T02:47:52.791Z,64.60
2018-08-22T02:50:21.106Z,64.08
2018-08-22T02:52:49.547Z,64.97
2018-08-22T02:55:17.927Z,65.30
2018-08-22T02:57:46.294Z,64.86
2018-08-22T03:00:14.714Z,64.42
2018-08-22T03:02:43.081Z,64.79
2018-08-22T03:05:11.431Z,65.48
2018-08-22T03:07:40.011Z,65.82
2018-08-22T03:10:08.443Z,65.77
2018-08-22T03:12:36.806Z,65.81
2018-08-22T03:15:05.156Z,66.04
2018-08-22T03:17:33.552Z,66.29
2018-08-22T03:20:01.908Z,65.39
2018-08-22T03:22:30.314Z,65.41
2018-08-22T03:24:58.690Z,64.92
2018-08-22T03:27:27.030Z,65.65
2018-08-22T03:29:55.385Z,65.94
2018-08-22T03:32:23.716Z,66.38
2018-08-22T03:34:52.045Z,65.11
2018-08-22T03:37:20.437Z,66.00
2018-08-22T03:39:48.844Z,65.17
2018-08-22T03:42:17.197Z,66.13
2018-08-22T03:44:45.850Z,65.61
2018-08-22T03:47:14.258Z,66.24
2018-08-22T03:49:42.551Z,67.26
2018-08-22T03:52:11.222Z,66.83
2018-08-22T03:54:39.603Z,66.38
2018-08-22T03:57:07.944Z,66.54
2018-08-22T03:59:36.322Z,66.36
2018-08-22T04:02:04.962Z,66.52
2018-08-22T04:04:33.334Z,67.62
2018-08-22T04:07:01.699Z,67.29
2018-08-22T04:09:30.083Z,66.47
2018-08-22T04:11:58.500Z,66.12
2018-08-22T04:14:26.854Z,67.07
2018-08-22T04:16:55.463Z,67.61
2018-08-22T04:19:23.909Z,67.23
2018-08-22T04:21:52.318Z,67.77
2018-08-22T04:24:20.759Z,67.71
2018-08-22T04:26:49.136Z,67.91
2018-08-22T04:29:17.507Z,68.12
2018-08-22T04:31:45.897Z,68.65
2018-08-22T04:34:14.277Z,67.32
2018-08-22T04:36:43.697Z,66.29
2018-08-22T04:39:12.071Z,66.46
2018-08-22T04:41:40.648Z,65.73
2018-08-22T04:44:09.008Z,65.75
2018-08-22T04:46:37.341Z,65.49
2018-08-22T04:49:05.787Z,66.88
2018-08-22T04:51:34.191Z,66.96
2018-08-22T04:54:02.575Z,67.84
2018-08-22T04:56:30.970Z,68.58
2018-08-22T04:58:59.290Z,67.77
2018-08-22T05:01:27.694Z,66.87
2018-08-22T05:03:56.055Z,65.78
2018-08-22T05:06:24.404Z,66.22
2018-08-22T05:08:52.761Z,67.57
2018-08-22T05:11:21.095Z,67.19
2018-08-22T05:13:49.507Z,67.48
2018-08-22T05:16:17.820Z,67.45
2018-08-22T05:18:46.279Z,66.79
2018-08-22T05:21:14.734Z,67.02
2018-08-22T05:23:43.123Z,65.64
2018-08-22T05:26:11.490Z,64.44
2018-08-22T05:28:39.901Z,63.71
2018-08-22T05:31:08.303Z,64.22
2018-08-22T05:33:36.684Z,65.52
2018-08-22T05:36:05.055Z,63.80
2018-08-22T05:38:33.491Z,64.10
2018-08-22T05:41:01.852Z,65.17
2018-08-22T05:43:30.247Z,63.95
2018-08-22T05:45:58.918Z,63.07
2018-08-22T05:48:27.256Z,65.03
2018-08-22T05:50:55.675Z,66.14
2018-08-22T05:53:24.024Z,64.57
2018-08-22T05:55:52.441Z,63.75
2018-08-22T05:58:20.868Z,63.69
2018-08-22T06:00:49.240Z,62.13
2018-08-22T06:03:17.647Z,60.77
2018-08-22T06:05:46.122Z,60.15
2018-08-22T06:08:14.515Z,57.25
2018-08-22T06:10:42.882Z,56.04
2018-08-22T06:13:11.279Z,55.44
2018-08-22T06:15:39.712Z,55.61
2018-08-22T06:18:08.091Z,55.40
2018-08-22T06:20:36.472Z,55.04
2018-08-22T06:23:04.831Z,55.37
2018-08-22T06:25:33.239Z,54.31
2018-08-22T06:28:01.565Z,54.15
2018-08-22T06:30:29.996Z,54.97
2018-08-22T06:32:58.407Z,55.03
2018-08-22T06:35:26.763Z,53.21
2018-08-22T06:37:55.233Z,53.09
2018-08-22T06:40:23.568Z,53.64
2018-08-22T06:42:51.881Z,53.29
2018-08-22T06:45:20.840Z,53.54
2018-08-22T06:47:49.259Z,52.28
2018-08-22T06:50:17.725Z,52.72
2018-08-22T06:52:46.116Z,53.23
2018-08-22T06:55:14.512Z,53.89
2018-08-22T06:57:42.893Z,52.20
2018-08-22T07:00:11.197Z,51.26
2018-08-22T07:02:39.539Z,50.34
2018-08-22T07:05:07.886Z,51.07
2018-08-22T07:07:36.208Z,48.65
2018-08-22T07:10:04.887Z,49.77
2018-08-22T07:12:33.287Z,49.26
2018-08-22T07:15:01.628Z,49.94
2018-08-22T07:17:30.027Z,49.90
2018-08-22T07:19:58.320Z,47.62
2018-08-22T07:22:26.742Z,48.79
2018-08-22T07:24:55.058Z,47.94
2018-08-22T07:27:23.420Z,47.58
2018-08-22T07:29:51.796Z,46.63
2018-08-22T07:32:20.173Z,45.67
2018-08-22T07:34:48.532Z,46.15
2018-08-22T07:37:16.902Z,44.18
2018-08-22T07:39:45.226Z,43.33
2018-08-22T07:42:13.594Z,42.49
2018-08-22T07:44:41.969Z,42.97
2018-08-22T07:47:10.410Z,42.18
2018-08-22T07:49:38.712Z,43.93
2018-08-22T07:52:07.142Z,44.14
2018-08-22T07:54:50.026Z,42.84
2018-08-22T07:57:21.470Z,42.97
2018-08-22T07:59:50.181Z,42.61
2018-08-22T08:02:18.614Z,41.47
2018-08-22T08:04:47.221Z,40.85
2018-08-22T08:07:15.910Z,41.34
2018-08-22T08:09:44.395Z,41.77
2018-08-22T08:12:13.027Z,40.00
2018-08-22T08:14:41.495Z,39.67
2018-08-22T08:17:09.999Z,39.87
2018-08-22T08:19:38.449Z,40.04
2018-08-22T08:22:06.876Z,40.67
2018-08-22T08:24:35.312Z,41.63
2018-08-22T08:27:03.717Z,40.26
2018-08-22T08:29:32.042Z,41.15
2018-08-22T08:32:00.454Z,41.81
2018-08-22T08:34:28.859Z,41.61
2018-08-22T08:36:57.261Z,42.54
2018-08-22T08:39:25.596Z,42.94
2018-08-22T08:41:53.953Z,44.37
2018-08-22T08:44:22.338Z,43.49
2018-08-22T08:46:50.719Z,45.17
2018-08-22T08:49:19.134Z,44.96
2018-08-22T08:51:59.891Z,43.41
2018-08-22T08:54:28.409Z,43.45
2018-08-22T08:56:56.981Z,43.74
2018-08-22T08:59:25.304Z,43.96
2018-08-22T09:01:53.668Z,44.02
2018-08-22T09:04:22.036Z,44.40
2018-08-22T09:06:51.052Z,43.87
2018-08-22T09:09:19.427Z,43.48
2018-08-22T09:11:53.190Z,42.99
2018-08-22T09:14:21.614Z,43.43
2018-08-22T09:16:49.994Z,42.49
2018-08-22T09:19:18.339Z,41.92
2018-08-22T09:21:46.707Z,42.94
2018-08-22T09:24:15.111Z,43.64
2018-08-22T09:26:43.539Z,42.67
2018-08-22T09:29:11.942Z,41.81
2018-08-22T09:31:40.302Z,40.99
2018-08-22T09:34:08.843Z,42.25
2018-08-22T09:36:37.189Z,42.28
2018-08-22T09:39:08.585Z,42.98
2018-08-22T09:41:36.926Z,41.39
2018-08-22T09:44:06.017Z,40.81
2018-08-22T09:46:34.406Z,39.78
2018-08-22T09:49:02.783Z,39.85
2018-08-22T09:51:31.183Z,39.60
2018-08-22T09:53:59.602Z,39.12
2018-08-22T09:56:27.974Z,38.26
2018-08-22T09:58:56.302Z,38.35
2018-08-22T10:01:30.023Z,39.74
2018-08-22T10:03:59.856Z,38.51
2018-08-22T10:06:35.878Z,38.55
2018-08-22T10:09:07.111Z,39.28
2018-08-22T10:11:35.440Z,37.63
2018-08-22T10:14:03.879Z,39.83
2018-08-22T10:16:32.225Z,38.84
2018-08-22T10:19:00.645Z,39.36
2018-08-22T10:21:29.001Z,38.21
2018-08-22T10:23:57.385Z,39.12
2018-08-22T10:26:25.929Z,38.48
2018-08-22T10:28:54.709Z,38.18
2018-08-22T10:31:23.869Z,37.31
2018-08-22T10:33:52.274Z,38.66
2018-08-22T10:36:20.786Z,38.27
2018-08-22T10:38:49.166Z,37.54
2018-08-22T10:41:17.533Z,37.19
2018-08-22T10:43:45.883Z,36.91
2018-08-22T10:46:14.242Z,37.67
2018-08-22T10:48:42.605Z,37.28
2018-08-22T10:51:10.976Z,38.74
2018-08-22T10:53:39.324Z,37.07
2018-08-22T10:56:07.734Z,37.96
2018-08-22T10:58:36.105Z,36.56
2018-08-22T11:01:04.512Z,36.65
2018-08-22T11:03:32.934Z,37.44
2018-08-22T11:06:01.375Z,37.07
2018-08-22T11:08:29.771Z,37.77
2018-08-22T11:10:58.210Z,37.55
2018-08-22T11:13:26.615Z,36.61
2018-08-22T11:15:55.010Z,37.12
2018-08-22T11:18:23.280Z,36.73
2018-08-22T11:20:51.676Z,37.39
2018-08-22T11:23:32.030Z,36.95
2018-08-22T11:26:12.321Z,36.30
2018-08-22T11:28:51.768Z,37.85
2018-08-22T11:31:31.444Z,37.15
2018-08-22T11:34:10.916Z,36.84
2018-08-22T11:36:38.123Z,36.35
2018-08-22T11:39:07.803Z,37.63
2018-08-22T11:41:36.240Z,35.99
2018-08-22T11:44:04.604Z,36.23
2018-08-22T11:46:32.988Z,36.92
2018-08-22T11:49:01.319Z,36.72
2018-08-22T11:51:29.752Z,35.71
2018-08-22T11:53:58.159Z,35.29
2018-08-22T11:56:26.508Z,35.53
2018-08-22T11:58:54.950Z,35.72
2018-08-22T12:01:23.388Z,36.56
2018-08-22T12:03:51.751Z,37.97
2018-08-22T12:06:20.309Z,36.36
2018-08-22T12:08:48.703Z,36.31
2018-08-22T12:11:17.150Z,35.63
2018-08-22T12:13:45.482Z,35.29
2018-08-22T12:16:14.015Z,35.67
2018-08-22T12:18:42.299Z,35.58
2018-08-22T12:21:10.698Z,36.32
2018-08-22T12:23:39.184Z,36.78
2018-08-22T12:26:07.583Z,36.67
2018-08-22T12:28:35.957Z,34.83
2018-08-22T12:31:04.366Z,35.11
2018-08-22T12:33:32.698Z,35.50
2018-08-22T12:36:01.071Z,36.59
2018-08-22T12:38:29.384Z,35.20
2018-08-22T12:40:57.724Z,34.42
2018-08-22T12:43:26.110Z,35.02
2018-08-22T12:45:54.622Z,34.83
2018-08-22T12:48:23.166Z,35.25
2018-08-22T12:50:51.496Z,34.13
2018-08-22T12:53:19.853Z,34.62
2018-08-22T12:55:48.404Z,36.14
2018-08-22T12:58:16.801Z,34.00
2018-08-22T13:00:45.166Z,35.53
2018-08-22T13:03:13.566Z,35.55
2018-08-22T13:05:42.258Z,34.71
2018-08-22T13:08:11.040Z,34.96
2018-08-22T13:10:39.497Z,34.00
2018-08-22T13:13:07.851Z,34.03
2018-08-22T13:15:36.250Z,34.59
2018-08-22T13:18:04.670Z,35.33
2018-08-22T13:20:33.060Z,35.51
2018-08-22T13:23:01.485Z,33.87
2018-08-22T13:25:29.876Z,34.28
2018-08-22T13:27:58.249Z,33.73
2018-08-22T13:30:26.653Z,33.64
2018-08-22T13:32:54.903Z,34.64
2018-08-22T13:35:23.270Z,33.75
2018-08-22T13:37:51.612Z,33.43
2018-08-22T13:40:19.989Z,33.15
2018-08-22T13:42:48.403Z,34.12
2018-08-22T13:45:16.782Z,34.42
2018-08-22T13:47:45.181Z,33.61
2018-08-22T13:50:13.640Z,33.85
2018-08-22T13:52:42.029Z,34.28
2018-08-22T13:55:11.501Z,34.21
2018-08-22T13:57:39.989Z,34.66
2018-08-22T14:00:08.777Z,34.84
2018-08-22T14:02:37.116Z,34.40
2018-08-22T14:05:06.158Z,34.26
2018-08-22T14:07:34.779Z,33.73
2018-08-22T14:10:03.297Z,35.11
2018-08-22T14:12:32.201Z,33.75
2018-08-22T14:15:00.865Z,33.67
2018-08-22T14:17:29.475Z,33.75
2018-08-22T14:19:57.923Z,33.69
2018-08-22T14:22:26.417Z,33.31
2018-08-22T14:24:54.719Z,33.11
2018-08-22T14:27:23.069Z,34.29
2018-08-22T14:29:51.435Z,33.96
2018-08-22T14:32:19.774Z,33.24
2018-08-22T14:34:48.125Z,33.16
2018-08-22T14:37:16.517Z,33.45
2018-08-22T14:39:44.913Z,33.22
2018-08-22T14:42:14.123Z,34.23
2018-08-22T14:44:42.487Z,33.73
2018-08-22T14:47:10.923Z,33.84
2018-08-22T14:49:39.299Z,34.18
2018-08-22T14:52:07.649Z,33.74
2018-08-22T14:54:35.981Z,33.38
2018-08-22T14:57:04.359Z,33.69
2018-08-22T14:59:32.756Z,33.87
2018-08-22T15:02:01.148Z,34.15
2018-08-22T15:04:29.562Z,34.97
2018-08-22T15:06:57.913Z,35.37
2018-08-22T15:09:26.259Z,35.37
2018-08-22T15:11:54.564Z,34.78
2018-08-22T15:14:22.923Z,33.46
2018-08-22T15:16:51.327Z,33.49
2018-08-22T15:19:19.835Z,34.37
2018-08-22T15:21:48.208Z,33.77
2018-08-22T15:24:16.742Z,35.19
2018-08-22T15:26:45.262Z,36.32
2018-08-22T15:29:13.519Z,34.64
2018-08-22T15:31:41.840Z,33.79
2018-08-22T15:34:10.229Z,33.86
2018-08-22T15:36:38.695Z,33.88
2018-08-22T15:39:08.836Z,34.07
2018-08-22T15:41:37.230Z,34.89
2018-08-22T15:44:05.901Z,34.98
2018-08-22T15:46:34.212Z,34.21
2018-08-22T15:49:02.893Z,35.15
2018-08-22T15:51:31.296Z,34.99
2018-08-22T15:54:10.049Z,34.18
2018-08-22T15:56:40.024Z,35.02
2018-08-22T15:59:09.177Z,34.88
2018-08-22T16:01:37.580Z,35.54
2018-08-22T16:04:06.075Z,34.47
2018-08-22T16:06:34.467Z,34.90
2018-08-22T16:09:02.919Z,34.59
2018-08-22T16:11:31.296Z,33.72
2018-08-22T16:13:59.731Z,34.14
2018-08-22T16:16:28.066Z,34.67
2018-08-22T16:18:56.384Z,34.39
2018-08-22T16:21:24.717Z,38.41
2018-08-22T16:23:54.103Z,34.56
2018-08-22T16:26:22.735Z,36.45
2018-08-22T16:28:55.067Z,35.17
2018-08-22T16:31:27.926Z,36.16
2018-08-22T16:33:56.293Z,34.55
2018-08-22T16:36:30.849Z,34.83
2018-08-22T16:39:00.157Z,38.82
2018-08-22T16:41:28.508Z,35.51
2018-08-22T16:43:56.887Z,35.89
2018-08-22T16:46:25.447Z,36.67
2018-08-22T16:48:55.045Z,34.79
2018-08-22T16:51:23.936Z,36.26
2018-08-22T16:54:11.582Z,35.74
2018-08-22T16:56:40.096Z,35.88
2018-08-22T16:59:09.553Z,34.87
2018-08-22T17:01:39.338Z,35.88
2018-08-22T17:04:07.843Z,34.18
2018-08-22T17:06:36.337Z,34.67
2018-08-22T17:09:06.765Z,36.75
2018-08-22T17:11:35.128Z,34.64
2018-08-22T17:14:03.462Z,36.46
2018-08-22T17:16:31.842Z,35.28
2018-08-22T17:19:00.243Z,35.18
2018-08-22T17:21:29.138Z,35.13
2018-08-22T17:23:57.993Z,35.63
2018-08-22T17:26:26.391Z,35.78
2018-08-22T17:28:57.562Z,35.90
2018-08-22T17:31:27.285Z,36.51
2018-08-22T17:34:02.840Z,36.97
2018-08-22T17:36:31.513Z,36.29
2018-08-22T17:39:01.109Z,36.64
2018-08-22T17:41:30.162Z,36.22
2018-08-22T17:44:14.461Z,36.37
2018-08-22T17:46:50.288Z,36.30
2018-08-22T17:49:18.688Z,36.50
2018-08-22T17:52:06.610Z,39.05
2018-08-22T17:54:35.012Z,39.10
2018-08-22T17:57:13.735Z,36.81
2018-08-22T17:59:42.901Z,37.32
2018-08-22T18:02:11.270Z,37.35
2018-08-22T18:04:51.898Z,37.05
2018-08-22T18:07:20.237Z,37.69
2018-08-22T18:09:49.593Z,37.22
2018-08-22T18:12:19.400Z,38.23
2018-08-22T18:14:48.055Z,37.75
2018-08-22T18:17:19.030Z,38.18
2018-08-22T18:19:47.664Z,39.76
2018-08-22T18:22:16.090Z,39.84
2018-08-22T18:24:50.151Z,41.13
2018-08-22T18:27:18.486Z,39.95
2018-08-22T18:29:47.177Z,39.23
2018-08-22T18:32:16.110Z,41.08
2018-08-22T18:35:01.065Z,40.18
2018-08-22T18:37:30.461Z,40.97
2018-08-22T18:40:24.907Z,41.81
2018-08-22T18:42:55.486Z,41.25
2018-08-22T18:45:24.587Z,40.12
2018-08-22T18:47:53.025Z,40.92
2018-08-22T18:50:21.623Z,41.65
2018-08-22T18:52:52.449Z,41.49
2018-08-22T18:55:24.588Z,43.21
2018-08-22T18:57:53.302Z,44.29
2018-08-22T19:00:21.711Z,43.06
2018-08-22T19:02:51.432Z,44.21
2018-08-22T19:05:23.780Z,45.06
2018-08-22T19:08:01.028Z,46.33
2018-08-22T19:10:30.790Z,42.71
2018-08-22T19:13:04.486Z,43.93
2018-08-22T19:15:33.124Z,43.30
2018-08-22T19:18:01.579Z,43.21
2018-08-22T19:20:30.179Z,44.29
2018-08-22T19:22:58.526Z,43.50
2018-08-22T19:25:27.095Z,42.58
2018-08-22T19:27:55.400Z,44.19
2018-08-22T19:30:23.768Z,43.30
2018-08-22T19:32:52.248Z,44.72
2018-08-22T19:35:20.776Z,44.36
2018-08-22T19:37:54.809Z,44.38
2018-08-22T19:40:25.589Z,44.90
2018-08-22T19:42:55.402Z,44.31
2018-08-22T19:45:30.161Z,43.89
2018-08-22T19:47:59.063Z,43.89
2018-08-22T19:50:30.488Z,44.33
2018-08-22T19:53:00.966Z,44.73
2018-08-22T19:55:29.838Z,43.98
2018-08-22T19:58:00.727Z,45.32
2018-08-22T20:00:29.194Z,44.55
2018-08-22T20:02:59.469Z,44.67
2018-08-22T20:05:40.135Z,44.56
2018-08-22T20:08:08.689Z,45.16
2018-08-22T20:10:37.239Z,44.57
2018-08-22T20:13:05.994Z,44.02
2018-08-22T20:15:34.466Z,44.08
2018-08-22T20:18:03.062Z,44.31
2018-08-22T20:20:32.117Z,45.33
2018-08-22T20:23:01.037Z,44.68
2018-08-22T20:25:30.818Z,44.19
2018-08-22T20:28:01.158Z,44.69
2018-08-22T20:30:29.553Z,44.49
2018-08-22T20:33:03.276Z,46.14
2018-08-22T20:35:37.508Z,44.84
2018-08-22T20:38:08.843Z,45.60
2018-08-22T20:40:38.662Z,46.07
2018-08-22T20:43:14.333Z,46.72
2018-08-22T20:45:45.363Z,47.14
2018-08-22T20:48:14.757Z,47.06
2018-08-22T20:50:45.469Z,46.79
2018-08-22T20:53:17.941Z,46.36
2018-08-22T20:55:47.522Z,46.29
2018-08-22T20:58:21.786Z,47.04
2018-08-22T21:00:51.102Z,46.64
2018-08-22T21:03:19.464Z,46.15
2018-08-22T21:05:47.844Z,46.57
2018-08-22T21:08:16.451Z,46.35
2018-08-22T21:10:44.783Z,46.22
2018-08-22T21:13:18.492Z,46.09
2018-08-22T21:15:47.220Z,44.93
2018-08-22T21:18:15.567Z,45.08
2018-08-22T21:20:43.925Z,45.99
2018-08-22T21:23:12.309Z,45.32
2018-08-22T21:25:40.768Z,46.17
2018-08-22T21:28:09.139Z,45.01
2018-08-22T21:30:42.678Z,45.57
2018-08-22T21:33:11.079Z,46.04
2018-08-22T21:35:39.783Z,45.26
2018-08-22T21:40:56.474Z,45.58
2018-08-22T21:43:24.910Z,44.87
2018-08-22T21:45:53.288Z,45.25
2018-08-22T21:48:25.083Z,45.53
2018-08-22T21:50:53.499Z,44.71
2018-08-22T21:53:22.122Z,44.71
2018-08-22T21:55:52.007Z,45.10
2018-08-22T21:58:20.384Z,45.33
2018-08-22T22:00:48.826Z,44.54
2018-08-22T22:03:22.427Z,45.89
2018-08-22T22:05:57.976Z,45.64
2018-08-22T22:08:26.450Z,45.66
2018-08-22T22:10:58.563Z,44.81
2018-08-22T22:13:27.020Z,46.96
2018-08-22T22:15:58.116Z,45.12
2018-08-22T22:18:27.660Z,45.41
2018-08-22T22:21:07.732Z,45.38
2018-08-22T22:23:44.769Z,45.14
2018-08-22T22:26:13.655Z,45.78
2018-08-22T22:28:42.241Z,45.96
2018-08-22T22:31:12.455Z,46.65
2018-08-22T22:33:57.846Z,45.86
2018-08-22T22:36:26.299Z,47.30
2018-08-22T22:38:54.631Z,46.75
2018-08-22T22:41:25.830Z,46.01
2018-08-22T22:43:54.203Z,46.68
2018-08-22T22:46:22.583Z,46.24
2018-08-22T22:48:50.973Z,47.31
2018-08-22T22:51:19.398Z,47.02
2018-08-22T22:53:47.812Z,46.54
2018-08-22T22:56:16.238Z,47.03
2018-08-22T22:58:44.623Z,46.62
2018-08-22T23:01:13.078Z,46.64
2018-08-22T23:03:41.662Z,48.03
2018-08-22T23:06:10.004Z,46.94
2018-08-22T23:08:38.420Z,46.93
2018-08-22T23:11:06.793Z,47.11
2018-08-22T23:13:35.216Z,48.15
2018-08-22T23:16:03.579Z,47.61
2018-08-22T23:18:31.988Z,47.93
2018-08-22T23:21:00.363Z,48.03
2018-08-22T23:23:33.385Z,48.56
2018-08-22T23:26:22.216Z,48.27
2018-08-22T23:28:50.582Z,47.82
2018-08-22T23:31:20.164Z,47.93
2018-08-22T23:33:48.574Z,49.31
2018-08-22T23:36:17.007Z,48.41
2018-08-22T23:38:45.685Z,49.43
2018-08-22T23:41:14.058Z,49.25
2018-08-22T23:43:50.543Z,49.52
2018-08-22T23:46:19.166Z,49.66
2018-08-22T23:48:54.236Z,49.18
2018-08-22T23:51:22.622Z,49.96
2018-08-22T23:53:50.971Z,49.59
2018-08-22T23:56:26.809Z,50.19
2018-08-22T23:58:55.753Z,49.92
